createdAt,value
2018-11-07T00:36:54.733Z,91.20
2018-11-07T01:37:18.709Z,90.40
2018-11-07T01:39:47.547Z,91.60
2018-11-07T01:42:16.313Z,92.10
2018-11-07T01:44:45.958Z,92.10
2018-11-07T01:47:14.735Z,92.30
2018-11-07T01:49:43.891Z,92.50
2018-11-07T01:52:12.715Z,92.60
2018-11-07T01:54:41.632Z,92.80
2018-11-07T01:57:11.177Z,92.80
2018-11-07T01:59:39.786Z,92.90
2018-11-07T02:02:08.473Z,93.00
2018-11-07T02:04:37.050Z,93.00
2018-11-07T02:07:06.080Z,93.00
2018-11-07T02:09:34.956Z,93.10
2018-11-07T02:12:03.789Z,93.10
2018-11-07T02:14:33.007Z,93.10
2018-11-07T02:17:02.011Z,93.20
2018-11-07T02:19:30.547Z,93.40
2018-11-07T02:21:59.308Z,93.50
2018-11-07T02:24:28.056Z,93.60
2018-11-07T02:26:56.512Z,93.70
2018-11-07T02:29:25.042Z,93.80
2018-11-07T02:31:54.573Z,93.80
2018-11-07T02:34:24.458Z,93.90
2018-11-07T02:47:27.750Z,94.10
2018-11-07T02:49:56.858Z,94.10
2018-11-07T02:52:25.817Z,94.10
2018-11-07T02:54:54.721Z,94.10
2018-11-07T02:57:23.465Z,94.10
2018-11-07T02:59:52.287Z,93.90
2018-11-07T03:02:21.101Z,93.80
2018-11-07T03:04:49.760Z,93.80
2018-11-07T03:07:18.276Z,93.90
2018-11-07T03:09:46.796Z,93.90
2018-11-07T03:12:15.367Z,93.90
2018-11-07T03:14:44.020Z,93.90
2018-11-07T03:17:12.516Z,93.90
2018-11-07T03:19:41.056Z,93.70
2018-11-07T03:22:09.583Z,93.80
2018-11-07T03:24:39.401Z,93.90
2018-11-07T03:27:08.092Z,93.90
2018-11-07T03:29:36.682Z,93.90
2018-11-07T03:32:05.259Z,94.00
2018-11-07T03:34:35.409Z,94.00
2018-11-07T03:37:04.224Z,93.90
2018-11-07T03:39:32.800Z,94.00
2018-11-07T03:42:01.363Z,93.90
2018-11-07T03:44:29.920Z,93.90
2018-11-07T03:46:58.452Z,93.80
2018-11-07T03:49:26.938Z,93.70
2018-11-07T03:51:55.533Z,93.70
2018-11-07T03:54:24.149Z,93.70
2018-11-07T03:56:52.806Z,93.60
2018-11-07T03:59:21.392Z,93.50
2018-11-07T04:01:49.957Z,93.60
2018-11-07T04:04:18.496Z,93.70
2018-11-07T04:06:47.017Z,93.60
2018-11-07T04:09:16.425Z,93.60
2018-11-07T04:18:59.329Z,93.80
2018-11-07T04:21:29.348Z,93.80
2018-11-07T04:25:39.100Z,93.60
2018-11-07T04:28:13.968Z,93.60
2018-11-07T04:30:48.181Z,93.50
2018-11-07T04:36:21.017Z,93.10
2018-11-07T04:38:49.584Z,93.10
2018-11-07T04:44:10.650Z,93.30
2018-11-07T04:46:39.236Z,93.40
2018-11-07T04:49:08.049Z,93.40
2018-11-07T04:51:36.621Z,93.50
2018-11-07T04:54:05.553Z,93.50
2018-11-07T04:56:34.432Z,93.50
2018-11-07T06:54:12.420Z,93.30
2018-11-07T06:56:40.881Z,91.90
2018-11-07T06:59:09.341Z,91.90
2018-11-07T07:01:37.840Z,91.90
2018-11-07T07:04:06.317Z,91.70
2018-11-07T07:06:34.980Z,91.70
2018-11-07T07:09:04.032Z,91.70
2018-11-07T07:11:32.480Z,91.80
2018-11-07T07:14:00.927Z,91.90
2018-11-07T07:16:29.376Z,92.00
2018-11-07T07:18:57.818Z,91.90
2018-11-07T07:21:26.526Z,91.90
2018-11-07T07:23:55.076Z,91.60
2018-11-07T07:26:23.499Z,91.40
2018-11-07T07:28:51.946Z,91.40
2018-11-07T07:31:20.389Z,91.20
2018-11-07T07:33:48.976Z,91.20
2018-11-07T07:36:17.413Z,91.00
2018-11-07T07:38:46.387Z,90.80
2018-11-07T07:41:15.381Z,90.80
2018-11-07T07:43:43.849Z,90.60
2018-11-07T07:46:12.406Z,90.50
2018-11-07T07:48:40.937Z,90.40
2018-11-07T07:51:09.418Z,90.30
2018-11-07T07:53:37.818Z,90.10
2018-11-07T07:56:06.351Z,90.10
2018-11-07T07:58:34.809Z,89.70
2018-11-07T08:01:03.286Z,89.30
2018-11-07T08:03:31.749Z,89.00
2018-11-07T08:06:00.210Z,88.60
2018-11-07T08:08:28.672Z,88.60
2018-11-07T08:10:57.185Z,88.50
2018-11-07T08:13:25.648Z,87.70
2018-11-07T08:15:54.188Z,87.60
2018-11-07T08:18:22.620Z,87.40
2018-11-07T08:20:51.164Z,87.30
2018-11-07T08:23:19.597Z,87.00
2018-11-07T08:25:48.085Z,86.10
2018-11-07T08:28:16.675Z,85.70
2018-11-07T08:30:45.190Z,85.80
2018-11-07T08:33:13.629Z,85.40
2018-11-07T08:35:42.075Z,84.80
2018-11-07T08:38:10.565Z,84.40
2018-11-07T08:40:38.969Z,84.30
2018-11-07T08:43:07.434Z,84.50
2018-11-07T08:45:35.824Z,83.80
2018-11-07T08:48:04.345Z,83.30
2018-11-07T08:50:32.792Z,83.00
2018-11-07T08:53:01.305Z,83.00
2018-11-07T08:55:29.722Z,82.10
2018-11-07T08:57:58.181Z,81.30
2018-11-07T09:00:26.728Z,81.40
2018-11-07T09:02:55.235Z,80.30
2018-11-07T09:05:23.764Z,80.20
2018-11-07T09:07:52.250Z,79.40
2018-11-07T09:10:21.929Z,78.90
2018-11-07T09:12:50.337Z,79.30
2018-11-07T09:15:20.140Z,78.60
2018-11-07T09:17:48.590Z,77.80
2018-11-07T09:20:18.346Z,77.50
2018-11-07T09:22:46.917Z,76.90
2018-11-07T09:25:15.925Z,76.90
2018-11-07T09:27:45.104Z,76.70
2018-11-07T09:30:18.418Z,75.90
2018-11-07T09:32:46.914Z,75.20
2018-11-07T09:35:15.564Z,75.00
2018-11-07T09:37:44.089Z,74.90
2018-11-07T09:40:15.580Z,74.50
2018-11-07T09:42:44.595Z,74.20
2018-11-07T09:45:14.824Z,73.70
2018-11-07T09:47:44.028Z,73.60
2018-11-07T09:50:13.319Z,73.00
2018-11-07T09:52:42.357Z,72.90
2018-11-07T09:55:12.753Z,72.10
2018-11-07T09:57:41.476Z,71.30
2018-11-07T10:00:12.035Z,71.80
2018-11-07T10:02:41.106Z,70.70
2018-11-07T10:05:10.156Z,70.30
2018-11-07T10:07:39.837Z,69.80
2018-11-07T10:10:10.470Z,69.60
2018-11-07T10:12:40.044Z,69.00
2018-11-07T10:15:10.072Z,68.60
2018-11-07T10:17:44.416Z,68.30
2018-11-07T10:20:15.269Z,67.20
2018-11-07T10:22:44.237Z,66.00
2018-11-07T10:25:13.167Z,66.10
2018-11-07T10:27:42.002Z,65.30
2018-11-07T10:30:13.115Z,64.60
2018-11-07T10:32:43.578Z,64.20
2018-11-07T10:35:12.189Z,64.00
2018-11-07T10:37:40.796Z,63.90
2018-11-07T10:40:13.112Z,63.50
2018-11-07T10:42:41.864Z,63.70
2018-11-07T10:45:11.092Z,62.70
2018-11-07T10:47:41.664Z,63.10
2018-11-07T10:50:11.770Z,63.30
2018-11-07T10:52:41.260Z,62.80
2018-11-07T10:55:10.531Z,62.50
2018-11-07T10:57:39.048Z,62.80
2018-11-07T11:00:15.595Z,62.80
2018-11-07T11:02:47.413Z,61.70
2018-11-07T11:05:17.452Z,61.90
2018-11-07T11:07:46.069Z,61.50
2018-11-07T11:10:14.833Z,60.40
2018-11-07T11:12:44.506Z,59.90
2018-11-07T11:15:13.102Z,59.10
2018-11-07T11:17:41.804Z,58.20
2018-11-07T11:20:12.449Z,57.70
2018-11-07T11:22:41.021Z,57.10
2018-11-07T11:25:10.885Z,56.90
2018-11-07T11:27:39.697Z,56.50
2018-11-07T11:30:09.381Z,56.10
2018-11-07T11:32:38.271Z,55.90
2018-11-07T11:35:07.824Z,55.40
2018-11-07T11:37:37.103Z,55.20
2018-11-07T11:40:07.571Z,55.70
2018-11-07T11:42:36.135Z,55.20
2018-11-07T11:45:05.045Z,55.20
2018-11-07T11:47:33.572Z,55.50
2018-11-07T11:50:02.320Z,56.30
2018-11-07T11:52:30.889Z,55.40
2018-11-07T11:54:59.350Z,55.50
2018-11-07T11:57:28.023Z,55.50
2018-11-07T11:59:56.848Z,55.70
2018-11-07T12:02:25.174Z,55.60
2018-11-07T12:04:53.989Z,55.40
2018-11-07T12:07:22.500Z,55.30
2018-11-07T12:09:51.003Z,55.40
2018-11-07T12:12:19.612Z,55.20
2018-11-07T12:14:48.084Z,54.70
2018-11-07T12:17:16.651Z,54.60
2018-11-07T12:19:45.153Z,54.50
2018-11-07T12:22:13.600Z,54.50
2018-11-07T12:24:42.051Z,54.60
2018-11-07T12:27:10.548Z,55.00
2018-11-07T12:29:39.005Z,54.00
2018-11-07T12:32:07.501Z,55.00
2018-11-07T12:34:35.994Z,55.30
2018-11-07T12:37:04.682Z,55.80
2018-11-07T12:39:33.175Z,56.00
2018-11-07T12:42:01.625Z,56.10
2018-11-07T12:44:30.081Z,56.50
2018-11-07T12:46:58.548Z,56.30
2018-11-07T12:49:27.028Z,56.40
2018-11-07T12:51:55.495Z,56.40
2018-11-07T12:54:24.733Z,56.00
2018-11-07T12:56:53.627Z,55.50
2018-11-07T12:59:22.184Z,55.20
2018-11-07T13:01:50.650Z,55.30
2018-11-07T13:04:19.116Z,55.60
2018-11-07T13:06:47.565Z,55.50
2018-11-07T13:09:16.004Z,55.60
2018-11-07T13:11:44.453Z,55.70
2018-11-07T13:14:12.897Z,56.10
2018-11-07T13:16:41.410Z,56.10
2018-11-07T13:19:09.785Z,56.40
2018-11-07T13:21:38.209Z,56.70
2018-11-07T13:24:06.654Z,56.90
2018-11-07T13:26:35.178Z,57.20
2018-11-07T13:29:03.724Z,57.40
2018-11-07T13:31:32.168Z,57.70
2018-11-07T13:34:00.677Z,58.20
2018-11-07T13:36:29.130Z,58.60
2018-11-07T13:38:57.887Z,58.90
2018-11-07T13:41:26.004Z,59.20
2018-11-07T13:43:54.460Z,59.50
2018-11-07T13:46:22.914Z,59.60
2018-11-07T13:48:51.440Z,60.00
2018-11-07T13:51:19.927Z,60.40
2018-11-07T13:53:48.437Z,60.90
2018-11-07T13:56:16.887Z,60.80
2018-11-07T13:58:46.603Z,61.20
2018-11-07T14:01:15.088Z,61.50
2018-11-07T14:03:43.521Z,62.10
2018-11-07T14:06:18.372Z,62.10
2018-11-07T14:08:46.928Z,62.30
2018-11-07T14:11:15.569Z,62.60
2018-11-07T14:13:44.092Z,62.50
2018-11-07T14:16:12.606Z,62.70
2018-11-07T14:18:41.149Z,62.60
2018-11-07T14:21:09.598Z,62.00
2018-11-07T14:23:38.072Z,61.70
2018-11-07T14:26:06.906Z,62.20
2018-11-07T14:28:36.376Z,61.90
2018-11-07T14:31:05.042Z,62.20
2018-11-07T14:33:33.748Z,61.90
2018-11-07T14:36:02.280Z,62.10
2018-11-07T14:38:30.817Z,62.30
2018-11-07T14:40:59.304Z,62.30
2018-11-07T14:43:27.753Z,62.30
2018-11-07T14:45:56.348Z,62.10
2018-11-07T14:48:24.894Z,62.50
2018-11-07T14:50:53.437Z,63.00
2018-11-07T14:53:21.942Z,63.20
2018-11-07T14:55:50.414Z,63.50
2018-11-07T14:58:20.112Z,63.40
2018-11-07T15:00:49.500Z,63.60
2018-11-07T15:03:18.013Z,63.90
2018-11-07T15:05:46.468Z,64.10
2018-11-07T15:08:14.965Z,64.20
2018-11-07T15:10:43.462Z,64.50
2018-11-07T15:13:11.925Z,64.80
2018-11-07T15:15:41.456Z,64.80
2018-11-07T15:18:09.916Z,64.70
2018-11-07T15:20:38.365Z,64.90
2018-11-07T15:23:07.285Z,64.70
2018-11-07T15:25:35.824Z,64.60
2018-11-07T15:28:04.283Z,64.70
2018-11-07T15:30:32.760Z,66.10
2018-11-07T15:33:01.218Z,67.70
2018-11-07T15:35:29.709Z,69.20
2018-11-07T15:37:58.427Z,70.50
2018-11-07T15:40:26.886Z,71.30
2018-11-07T15:42:55.340Z,72.20
2018-11-07T15:45:24.004Z,72.90
2018-11-07T15:47:52.444Z,74.10
2018-11-07T15:50:26.368Z,75.10
2018-11-07T15:52:54.891Z,76.50
2018-11-07T15:55:23.356Z,77.60
2018-11-07T15:57:52.198Z,78.50
2018-11-07T16:00:21.240Z,79.20
2018-11-07T16:02:50.096Z,80.00
2018-11-07T16:05:19.004Z,80.30
2018-11-07T16:07:47.939Z,81.00
2018-11-07T16:10:16.997Z,81.50
2018-11-07T16:12:45.817Z,82.20
2018-11-07T16:15:16.467Z,81.70
2018-11-07T16:17:45.486Z,81.80
2018-11-07T16:20:17.042Z,82.60
2018-11-07T16:22:46.902Z,83.10
2018-11-07T16:25:15.816Z,83.50
2018-11-07T16:27:45.346Z,84.00
2018-11-07T16:30:16.973Z,84.50
2018-11-07T16:32:45.918Z,84.80
2018-11-07T16:35:15.035Z,85.10
2018-11-07T16:37:44.165Z,85.60
2018-11-07T16:40:17.383Z,86.60
2018-11-07T16:42:46.414Z,87.00
2018-11-07T16:45:16.612Z,87.30
2018-11-07T16:47:45.678Z,87.60
2018-11-07T16:50:15.615Z,87.90
2018-11-07T16:52:44.471Z,88.30
2018-11-07T16:55:13.423Z,88.40
2018-11-07T16:57:42.311Z,88.10
2018-11-07T17:00:14.933Z,87.70
2018-11-07T17:02:44.734Z,87.60
2018-11-07T17:05:14.050Z,86.90
2018-11-07T17:07:42.588Z,87.70
2018-11-07T17:10:12.332Z,87.20
2018-11-07T17:12:40.769Z,87.30
2018-11-07T17:15:09.277Z,87.50
2018-11-07T17:17:44.708Z,87.20
2018-11-07T17:20:14.235Z,87.00
2018-11-07T17:22:43.181Z,87.40
2018-11-07T17:25:15.499Z,86.50
2018-11-07T17:27:44.416Z,85.00
2018-11-07T17:30:13.806Z,85.70
2018-11-07T17:32:45.617Z,85.00
2018-11-07T17:35:15.318Z,85.70
2018-11-07T17:37:45.327Z,85.50
2018-11-07T17:40:17.475Z,86.60
2018-11-07T17:42:46.481Z,87.00
2018-11-07T17:45:16.667Z,86.90
2018-11-07T17:47:45.372Z,85.30
2018-11-07T17:50:14.964Z,81.00
2018-11-07T17:52:43.734Z,79.40
2018-11-07T17:55:15.401Z,78.50
2018-11-07T17:57:43.957Z,76.90
2018-11-07T18:00:16.507Z,76.30
2018-11-07T18:02:45.074Z,75.60
2018-11-07T18:05:13.577Z,75.30
2018-11-07T18:07:42.093Z,75.30
2018-11-07T18:10:14.967Z,74.50
2018-11-07T18:12:43.908Z,74.80
2018-11-07T18:15:12.685Z,75.50
2018-11-07T18:17:41.299Z,74.40
2018-11-07T18:20:11.169Z,74.90
2018-11-07T18:22:39.749Z,74.90
2018-11-07T18:25:09.426Z,74.90
2018-11-07T18:27:38.034Z,75.10
2018-11-07T18:30:07.803Z,75.60
2018-11-07T18:32:36.392Z,75.40
2018-11-07T18:35:05.552Z,75.70
2018-11-07T18:37:34.168Z,75.70
2018-11-07T18:40:02.656Z,75.40
2018-11-07T18:42:31.123Z,75.10
2018-11-07T18:44:59.678Z,75.40
2018-11-07T18:47:28.139Z,75.70
2018-11-07T18:49:56.824Z,75.30
2018-11-07T18:52:25.453Z,76.00
2018-11-07T18:54:53.949Z,76.40
2018-11-07T18:57:22.489Z,76.00
2018-11-07T18:59:50.904Z,75.90
2018-11-07T19:02:19.716Z,76.40
2018-11-07T19:04:48.240Z,76.70
2018-11-07T19:07:17.856Z,76.60
2018-11-07T19:09:46.619Z,76.80
2018-11-07T19:12:15.355Z,77.20
2018-11-07T19:14:43.789Z,77.00
2018-11-07T19:17:12.360Z,76.90
2018-11-07T19:19:40.829Z,76.50
2018-11-07T19:22:09.315Z,76.80
2018-11-07T19:24:37.809Z,76.90
2018-11-07T19:27:07.549Z,76.90
2018-11-07T19:29:36.053Z,77.00
2018-11-07T19:32:04.612Z,77.10
2018-11-07T19:34:33.132Z,77.30
2018-11-07T19:37:01.732Z,78.80
2018-11-07T19:39:30.194Z,79.20
2018-11-07T19:41:58.616Z,78.80
2018-11-07T19:44:27.574Z,78.40
2018-11-07T19:46:56.639Z,78.40
2018-11-07T19:49:25.184Z,79.20
2018-11-07T19:51:53.801Z,79.10
2018-11-07T19:54:22.305Z,78.90
2018-11-07T19:56:50.764Z,77.50
2018-11-07T19:59:19.302Z,77.30
2018-11-07T20:01:47.786Z,78.10
2018-11-07T20:04:16.271Z,78.70
2018-11-07T20:06:45.046Z,78.00
2018-11-07T20:09:13.544Z,78.70
2018-11-07T20:11:42.237Z,78.30
2018-11-07T20:14:10.915Z,78.40
2018-11-07T20:16:39.460Z,78.30
2018-11-07T20:19:07.962Z,78.10
2018-11-07T20:21:36.495Z,78.30
2018-11-07T20:24:05.506Z,78.00
2018-11-07T20:26:33.961Z,77.50
2018-11-07T20:29:02.492Z,77.70
2018-11-07T20:31:30.936Z,77.90
2018-11-07T20:33:59.873Z,78.40
2018-11-07T20:36:28.589Z,78.80
2018-11-07T20:38:57.202Z,78.00
2018-11-07T20:41:25.685Z,78.00
2018-11-07T20:43:54.456Z,77.90
2018-11-07T20:49:15.516Z,78.30
2018-11-07T20:51:45.413Z,79.00
2018-11-07T20:54:14.313Z,79.70
2018-11-07T20:56:51.930Z,79.60
2018-11-07T20:59:24.232Z,79.90
2018-11-07T21:01:53.360Z,79.80
2018-11-07T21:04:22.350Z,79.70
2018-11-07T21:06:51.244Z,80.20
2018-11-07T21:09:20.035Z,80.40
2018-11-07T21:11:48.854Z,81.30
2018-11-07T21:14:17.879Z,80.60
2018-11-07T21:16:48.963Z,81.00
2018-11-07T21:19:17.750Z,81.60
2018-11-07T21:21:46.598Z,81.60
2018-11-07T21:24:15.463Z,81.40
2018-11-07T21:26:44.288Z,81.10
2018-11-07T21:29:13.415Z,81.80
2018-11-07T21:31:42.321Z,82.00
2018-11-07T21:34:11.455Z,81.30
2018-11-07T21:36:41.316Z,81.70
2018-11-07T21:39:11.681Z,82.00
2018-11-07T21:41:41.556Z,82.00
2018-11-07T21:44:10.395Z,82.50
2018-11-07T21:46:39.402Z,82.50
2018-11-07T21:49:09.333Z,82.50
2018-11-07T21:51:38.198Z,83.10
2018-11-07T21:54:07.123Z,83.10
2018-11-07T21:56:36.232Z,83.10
2018-11-07T21:59:05.420Z,83.30
2018-11-07T22:01:34.269Z,83.70
2018-11-07T22:04:03.122Z,84.00
2018-11-07T22:06:32.316Z,84.10
2018-11-07T22:09:01.179Z,83.20
2018-11-07T22:11:30.104Z,82.80
2018-11-07T22:13:58.995Z,83.00
2018-11-07T22:16:27.881Z,83.10
2018-11-07T22:18:57.051Z,83.30
2018-11-07T22:21:31.227Z,83.00
2018-11-07T22:24:00.378Z,83.10
2018-11-07T22:26:45.732Z,83.00
2018-11-07T22:43:31.006Z,82.40
2018-11-07T22:46:13.172Z,83.90
2018-11-07T22:48:41.605Z,84.30
2018-11-07T22:51:10.384Z,84.80
2018-11-07T22:53:40.353Z,85.10
2018-11-07T22:56:08.965Z,85.20
2018-11-07T22:58:37.619Z,85.20
2018-11-07T23:01:12.367Z,85.40
2018-11-07T23:03:40.932Z,85.60
2018-11-07T23:06:09.931Z,85.70
2018-11-07T23:08:38.647Z,85.60
2018-11-07T23:11:07.174Z,86.00
2018-11-07T23:13:35.882Z,86.20
2018-11-07T23:16:05.185Z,86.40
2018-11-07T23:18:33.876Z,86.30
2018-11-07T23:21:02.337Z,86.30
2018-11-07T23:23:30.805Z,86.20
2018-11-07T23:25:59.286Z,86.20
2018-11-07T23:28:27.745Z,86.50
2018-11-07T23:30:56.238Z,86.70
2018-11-07T23:33:24.880Z,86.60
2018-11-07T23:35:53.705Z,86.30
2018-11-07T23:38:22.223Z,85.90
2018-11-07T23:40:51.292Z,85.90
2018-11-07T23:43:19.741Z,86.40
2018-11-07T23:45:48.208Z,86.70
2018-11-07T23:48:16.645Z,86.70
2018-11-07T23:50:45.436Z,87.10
2018-11-07T23:53:14.675Z,87.30
2018-11-07T23:55:44.030Z,87.20
2018-11-07T23:58:12.674Z,87.00
